Time;durP1;ratioP1;P1;durP2;ratioP2;P2;SDS_P1;SDS_P2;PMS_P1;PMS_P2;Temp;Humidity;BMP_temperature;BMP_pressure;BME280_temperature;BME280_humidity;BME280_pressure;Samples;Min_cycle;Max_cycle;Signal;HPM_P1;HPM_P2
2023/07/03 00:00:57;;;;;;;21.27;9.02;;;17.60;78.90;;;;;;4999937;28;20034;-74
2023/07/03 05:02:17;;;;;;;16.33;7.90;;;19.20;77.90;;;;;;5605730;23;20053;-74
2023/07/03 05:04:43;;;;;;;15.52;7.88;;;19.20;77.80;;;;;;5018831;28;20338;-73
2023/07/03 05:07:09;;;;;;;16.48;8.27;;;19.20;77.60;;;;;;5005603;28;20096;-71
2023/07/03 05:09:35;;;;;;;17.02;7.63;;;19.20;77.50;;;;;;5023712;28;20025;-73
2023/07/03 05:12:01;;;;;;;17.38;7.72;;;19.30;77.50;;;;;;5023313;28;20040;-72
2023/07/03 05:14:26;;;;;;;14.65;7.10;;;19.30;77.20;;;;;;5023717;28;20029;-71
2023/07/03 05:17:02;;;;;;;15.10;7.30;;;19.40;77.00;;;;;;5018194;28;20341;-75
2023/07/03 05:19:28;;;;;;;16.30;7.75;;;19.40;76.80;;;;;;5023768;28;20092;-73
2023/07/03 05:21:53;;;;;;;32.95;19.00;;;19.60;76.70;;;;;;5023492;28;20215;-73
2023/07/03 05:24:19;;;;;;;15.50;7.90;;;19.50;76.80;;;;;;5023716;28;20083;-72
2023/07/03 05:26:48;;;;;;;15.88;7.60;;;19.60;77.50;;;;;;5024277;28;20025;-72
2023/07/03 05:29:14;;;;;;;16.17;7.43;;;19.60;76.70;;;;;;5023806;28;20101;-72
2023/07/03 05:31:39;;;;;;;17.77;7.55;;;19.70;76.70;;;;;;5023679;28;20064;-70
2023/07/03 05:34:05;;;;;;;17.05;7.43;;;19.80;76.30;;;;;;5022972;28;20045;-74
2023/07/03 05:36:31;;;;;;;18.20;8.40;;;19.70;76.40;;;;;;5023299;28;20025;-72
2023/07/03 05:38:57;;;;;;;16.73;7.88;;;19.70;76.40;;;;;;5023248;28;20356;-73
2023/07/03 05:41:23;;;;;;;16.13;7.72;;;19.70;76.40;;;;;;5023803;28;20033;-71
2023/07/03 05:43:48;;;;;;;16.92;7.57;;;19.70;76.40;;;;;;5022646;28;20057;-72
2023/07/03 05:46:14;;;;;;;13.88;7.78;;;19.70;76.50;;;;;;5023371;28;20345;-71
2023/07/03 05:48:40;;;;;;;14.50;7.65;;;19.80;76.60;;;;;;5023328;28;20029;-72
2023/07/03 05:51:05;;;;;;;15.65;7.80;;;20.00;76.30;;;;;;5022877;28;20219;-71
2023/07/03 05:53:31;;;;;;;16.02;7.45;;;20.00;76.30;;;;;;5023228;28;20018;-74
2023/07/03 05:55:58;;;;;;;13.68;7.45;;;20.10;76.00;;;;;;5005464;28;20030;-73
2023/07/03 05:58:26;;;;;;;14.70;7.18;;;20.20;75.80;;;;;;5023301;28;20361;-71
2023/07/03 06:00:52;;;;;;;15.10;6.95;;;20.30;76.00;;;;;;5005017;28;20037;-72
2023/07/03 06:03:18;;;;;;;14.07;6.97;;;20.40;75.30;;;;;;5022830;28;20038;-72
2023/07/03 06:05:45;;;;;;;14.55;7.32;;;20.50;75.40;;;;;;5022902;28;20033;-72
2023/07/03 06:08:11;;;;;;;14.43;6.55;;;20.70;75.00;;;;;;5022489;28;20311;-70
2023/07/03 06:10:38;;;;;;;14.48;6.82;;;20.80;74.50;;;;;;5022855;28;20040;-74
2023/07/03 06:13:04;;;;;;;11.40;6.68;;;21.00;74.10;;;;;;5022297;28;20257;-70
2023/07/03 06:15:30;;;;;;;16.10;7.88;;;20.90;74.30;;;;;;5005876;28;20033;-71
2023/07/03 06:17:57;;;;;;;12.88;7.07;;;20.80;74.90;;;;;;5022781;28;20030;-70
2023/07/03 06:20:23;;;;;;;13.60;6.70;;;21.00;74.20;;;;;;5023226;28;20033;-72
2023/07/03 06:22:48;;;;;;;16.63;6.85;;;21.00;73.20;;;;;;5023358;28;20086;-70
2023/07/03 06:25:14;;;;;;;12.93;6.90;;;20.90;73.70;;;;;;5005544;28;20092;-71
2023/07/03 06:27:40;;;;;;;13.15;6.63;;;21.00;74.10;;;;;;5023456;28;20037;-73
2023/07/03 06:30:06;;;;;;;13.43;6.75;;;20.90;73.90;;;;;;5022477;28;20029;-72
2023/07/03 06:32:32;;;;;;;15.82;7.88;;;21.00;73.90;;;;;;5022409;28;20026;-70
2023/07/03 06:34:58;;;;;;;12.27;6.60;;;21.10;73.90;;;;;;5004979;28;20034;-73
2023/07/03 06:37:24;;;;;;;11.77;6.65;;;21.20;73.50;;;;;;5021758;28;20252;-70
2023/07/03 06:39:49;;;;;;;13.77;7.22;;;21.40;73.10;;;;;;5005098;28;20037;-72
2023/07/03 06:42:15;;;;;;;15.15;6.63;;;21.50;72.90;;;;;;5022264;28;20262;-73
2023/07/03 06:44:44;;;;;;;;;;;21.50;72.60;;;;;;5021983;28;20316;-72
2023/07/03 06:47:09;;;;;;;13.02;6.13;;;21.50;72.70;;;;;;5004968;28;19916;-71
2023/07/03 06:49:38;;;;;;;13.20;6.55;;;21.50;73.20;;;;;;5023272;28;20219;-72
2023/07/03 06:52:04;;;;;;;13.52;6.70;;;21.50;72.90;;;;;;5022460;28;20032;-71
2023/07/03 06:54:30;;;;;;;13.65;6.85;;;21.50;73.00;;;;;;5004838;28;20226;-69
2023/07/03 06:56:56;;;;;;;12.95;7.07;;;21.60;73.30;;;;;;5023695;28;20097;-72
2023/07/03 06:59:21;;;;;;;13.52;6.68;;;21.60;72.80;;;;;;5026162;28;20018;-72
2023/07/03 07:01:47;;;;;;;15.57;6.85;;;21.60;72.50;;;;;;5025940;28;20050;-72
2023/07/03 07:04:14;;;;;;;15.13;6.80;;;21.70;72.60;;;;;;5008411;28;20042;-71
2023/07/03 07:06:40;;;;;;;13.73;6.53;;;21.80;72.00;;;;;;5026238;28;20049;-73
2023/07/03 07:09:06;;;;;;;14.23;6.22;;;21.90;72.30;;;;;;5025585;28;20049;-72
2023/07/03 07:11:34;;;;;;;13.00;6.25;;;22.00;70.90;;;;;;5026351;28;20024;-74
2023/07/03 07:14:01;;;;;;;;;;;22.10;70.40;;;;;;5024450;28;20037;-71
2023/07/03 07:16:32;;;;;;;13.15;5.95;;;22.10;70.20;;;;;;5017316;28;20206;-72
2023/07/03 07:19:00;;;;;;;17.25;6.63;;;22.00;70.50;;;;;;5006922;28;20030;-72
2023/07/03 07:21:27;;;;;;;14.25;6.47;;;21.90;70.60;;;;;;4991334;28;20030;-74
2023/07/03 07:23:58;;;;;;;11.98;5.80;;;21.90;70.70;;;;;;5025575;28;20033;-72
2023/07/03 07:26:33;;;;;;;14.30;7.07;;;21.90;70.90;;;;;;5025897;28;20045;-73
2023/07/03 07:29:03;;;;;;;14.68;6.72;;;21.90;71.10;;;;;;5024955;28;20034;-73
2023/07/03 07:31:31;;;;;;;16.05;6.88;;;21.80;71.20;;;;;;5010361;28;20023;-71
2023/07/03 07:33:57;;;;;;;15.13;6.30;;;21.70;71.20;;;;;;5005306;28;20038;-73
2023/07/03 07:36:25;;;;;;;15.00;7.38;;;21.40;72.00;;;;;;5005786;28;20030;-70
2023/07/03 07:38:52;;;;;;;12.48;6.18;;;21.30;72.70;;;;;;4988306;28;20102;-73
2023/07/03 07:41:18;;;;;;;14.88;6.85;;;21.20;73.40;;;;;;4977557;28;20096;-71
2023/07/03 07:43:47;;;;;;;15.32;7.32;;;21.20;73.30;;;;;;4985882;28;20220;-70
2023/07/03 07:46:13;;;;;;;15.77;6.88;;;21.20;73.50;;;;;;4985637;28;20039;-73
2023/07/03 07:48:39;;;;;;;16.70;7.47;;;21.10;73.90;;;;;;5001449;28;20304;-73
2023/07/03 07:51:10;;;;;;;15.07;6.97;;;21.00;74.20;;;;;;5004769;28;20030;-71
2023/07/03 07:53:36;;;;;;;16.50;7.13;;;21.00;74.20;;;;;;4988079;28;20220;-71
2023/07/03 07:56:03;;;;;;;22.70;7.70;;;20.90;74.50;;;;;;5005158;28;20038;-73
2023/07/03 07:58:29;;;;;;;15.80;6.65;;;21.00;74.80;;;;;;5005708;28;20031;-72
2023/07/03 08:00:58;;;;;;;28.88;8.95;;;21.00;74.80;;;;;;5005178;28;20069;-71
2023/07/03 08:03:25;;;;;;;18.42;6.60;;;21.10;75.00;;;;;;5004190;28;20091;-72
2023/07/03 08:05:59;;;;;;;15.35;7.30;;;21.30;74.80;;;;;;5025327;28;20034;-71
2023/07/03 08:08:26;;;;;;;14.80;6.43;;;21.50;74.60;;;;;;5024972;28;20030;-73
2023/07/03 08:11:00;;;;;;;16.85;7.22;;;21.50;74.90;;;;;;5015567;28;20038;-70
2023/07/03 08:13:27;;;;;;;15.68;7.18;;;21.80;74.60;;;;;;5005281;28;20038;-72
2023/07/03 08:15:54;;;;;;;14.70;7.57;;;22.20;73.60;;;;;;5005271;28;20038;-71
2023/07/03 08:18:20;;;;;;;13.98;6.68;;;22.60;72.70;;;;;;5005421;28;20064;-71
2023/07/03 08:20:46;;;;;;;12.20;6.38;;;23.00;71.70;;;;;;5005048;28;20304;-71
2023/07/03 08:23:13;;;;;;;16.30;6.57;;;22.80;71.00;;;;;;5004329;28;20045;-70
2023/07/03 08:25:40;;;;;;;20.83;7.22;;;23.00;71.30;;;;;;5004677;28;20054;-69
2023/07/03 08:28:05;;;;;;;19.48;7.50;;;23.20;71.30;;;;;;5011420;28;20243;-70
2023/07/03 08:30:31;;;;;;;15.52;7.05;;;23.00;71.70;;;;;;5024417;28;20089;-73
2023/07/03 08:32:57;;;;;;;50.90;10.77;;;23.00;72.40;;;;;;5023963;28;20024;-72
2023/07/03 08:35:23;;;;;;;17.10;6.93;;;23.00;72.40;;;;;;5007092;28;20255;-72
2023/07/03 08:37:49;;;;;;;16.33;7.93;;;23.10;72.30;;;;;;5024425;28;20032;-71
2023/07/03 08:40:19;;;;;;;13.65;6.40;;;23.00;72.20;;;;;;5018960;28;20044;-70
2023/07/03 08:42:51;;;;;;;19.75;6.93;;;22.90;72.80;;;;;;5023989;28;20037;-71
2023/07/03 08:45:18;;;;;;;15.35;7.00;;;22.90;73.20;;;;;;5023861;28;20034;-72
2023/07/03 08:47:48;;;;;;;18.20;7.90;;;23.20;72.30;;;;;;5024037;28;20068;-77
2023/07/03 08:50:18;;;;;;;16.23;7.20;;;23.30;71.80;;;;;;5006278;28;20117;-72
2023/07/03 08:53:05;;;;;;;16.65;7.32;;;23.40;71.50;;;;;;4990444;28;20045;-74
2023/07/03 08:55:45;;;;;;;14.93;7.38;;;23.40;71.00;;;;;;5023927;28;20045;-75
2023/07/03 08:58:11;;;;;;;16.05;6.90;;;23.30;70.80;;;;;;5023731;28;20088;-74
2023/07/03 09:00:57;;;;;;;17.90;7.10;;;23.30;71.00;;;;;;5006859;28;20061;-73
2023/07/03 09:03:32;;;;;;;14.65;6.85;;;23.20;71.50;;;;;;5024884;28;20231;-73
2023/07/03 09:06:14;;;;;;;16.77;6.93;;;23.40;71.40;;;;;;5023063;28;20319;-73
2023/07/03 09:09:07;;;;;;;15.27;6.55;;;23.30;70.50;;;;;;5023940;28;20030;-73
2023/07/03 09:11:37;;;;;;;12.23;6.35;;;23.20;70.60;;;;;;5023479;28;20032;-73
2023/07/03 09:14:07;;;;;;;13.32;6.38;;;23.20;70.80;;;;;;5005559;28;20096;-73
2023/07/03 09:16:33;;;;;;;12.23;6.35;;;23.10;70.50;;;;;;5023253;28;20398;-73
2023/07/03 09:19:21;;;;;;;16.98;6.57;;;23.10;71.20;;;;;;5021580;28;20081;-72
2023/07/03 09:21:52;;;;;;;16.83;6.53;;;23.30;70.60;;;;;;5022894;28;20331;-72
2023/07/03 09:24:33;;;;;;;14.57;6.25;;;23.60;69.40;;;;;;5022444;28;20064;-71
2023/07/03 09:27:19;;;;;;;14.50;6.75;;;23.60;69.30;;;;;;5022588;28;20041;-73
2023/07/03 09:29:45;;;;;;;14.05;6.70;;;24.00;69.00;;;;;;5012601;28;20037;-71
2023/07/03 09:32:32;;;;;;;22.88;10.23;;;24.10;67.90;;;;;;5020765;28;20022;-72
2023/07/03 09:35:33;;;;;;;14.40;6.90;;;24.30;68.60;;;;;;5022531;28;20312;-71
2023/07/03 09:38:01;;;;;;;13.32;5.78;;;24.20;67.60;;;;;;5019317;28;20038;-70
2023/07/03 09:40:37;;;;;;;12.80;6.30;;;24.40;66.70;;;;;;5022746;28;20073;-72
2023/07/03 09:43:10;;;;;;;13.95;6.32;;;24.00;67.10;;;;;;5013786;28;20049;-72
2023/07/03 09:45:37;;;;;;;11.98;5.70;;;24.00;67.70;;;;;;5016340;28;20155;-71
2023/07/03 09:48:31;;;;;;;12.73;6.22;;;24.20;67.00;;;;;;5022323;28;20037;-72
2023/07/03 09:50:57;;;;;;;11.45;5.18;;;24.10;67.00;;;;;;5006191;28;20050;-72
2023/07/03 09:53:26;;;;;;;10.90;5.10;;;23.90;66.10;;;;;;5020693;28;20125;-73
2023/07/03 09:55:54;;;;;;;12.65;5.15;;;23.70;66.00;;;;;;5021825;28;20040;-72
2023/07/03 09:58:23;;;;;;;12.27;5.55;;;23.60;66.50;;;;;;5015877;28;20070;-71
2023/07/03 10:00:57;;;;;;;14.02;4.70;;;23.70;66.20;;;;;;5002568;28;20041;-73
2023/07/03 10:03:28;;;;;;;11.57;4.82;;;23.90;65.00;;;;;;5002091;28;20065;-72
2023/07/03 10:05:56;;;;;;;11.75;4.90;;;24.00;64.20;;;;;;5002856;28;20036;-71
2023/07/03 10:08:27;;;;;;;12.88;5.03;;;24.20;64.40;;;;;;5002892;28;20081;-73
2023/07/03 10:10:55;;;;;;;11.18;5.00;;;24.40;63.70;;;;;;5001372;28;20033;-70
2023/07/03 10:13:30;;;;;;;13.35;5.53;;;24.60;63.10;;;;;;5002469;28;20153;-72
2023/07/03 10:15:58;;;;;;;12.63;5.10;;;24.20;63.20;;;;;;5002830;28;20038;-70
2023/07/03 10:18:36;;;;;;;10.55;4.47;;;24.20;62.40;;;;;;5002851;28;20042;-70
2023/07/03 10:21:03;;;;;;;;;;;24.20;61.70;;;;;;5005631;28;20101;-76
2023/07/03 10:23:32;;;;;;;11.70;4.53;;;24.20;61.80;;;;;;4985817;28;19905;-71
2023/07/03 10:26:09;;;;;;;11.65;4.70;;;24.20;62.10;;;;;;5002905;28;20102;-73
2023/07/03 10:29:04;;;;;;;12.30;4.65;;;24.30;61.50;;;;;;5003163;28;20034;-73
2023/07/03 10:31:38;;;;;;;10.40;4.72;;;24.40;61.60;;;;;;4982747;28;20046;-71
2023/07/03 10:34:12;;;;;;;10.93;4.45;;;24.10;62.00;;;;;;5006258;28;20297;-70
2023/07/03 10:36:43;;;;;;;10.20;4.50;;;24.00;62.10;;;;;;5006616;28;20034;-72
2023/07/03 10:39:17;;;;;;;12.77;4.50;;;23.70;62.40;;;;;;5006340;28;20076;-71
2023/07/03 10:41:57;;;;;;;7.78;3.47;;;24.00;63.20;;;;;;5013546;28;20038;-72
2023/07/03 10:44:30;;;;;;;9.38;4.07;;;24.20;60.70;;;;;;5025946;28;20030;-72
2023/07/03 10:47:27;;;;;;;7.60;3.85;;;24.80;60.80;;;;;;5026567;28;20109;-72
2023/07/03 10:49:53;;;;;;;7.32;3.30;;;25.30;59.30;;;;;;5017518;28;20034;-70
2023/07/03 10:52:47;;;;;;;8.00;3.30;;;25.40;58.60;;;;;;5006380;28;20093;-75
2023/07/03 10:55:52;;;;;;;8.77;3.13;;;25.70;58.80;;;;;;5006369;28;20057;-74
2023/07/03 10:58:29;;;;;;;8.10;3.10;;;26.00;58.40;;;;;;4991922;28;20236;-72
2023/07/03 11:01:01;;;;;;;6.43;2.58;;;26.50;57.70;;;;;;5006027;28;20339;-73
2023/07/03 11:03:42;;;;;;;6.13;2.80;;;26.30;58.20;;;;;;4990075;28;20062;-74
2023/07/03 11:06:21;;;;;;;8.73;2.90;;;26.00;59.00;;;;;;5005984;28;20031;-71
2023/07/03 11:09:18;;;;;;;8.55;3.17;;;25.80;59.50;;;;;;4988765;28;20038;-74
2023/07/03 11:12:16;;;;;;;8.50;3.17;;;25.90;59.60;;;;;;5008307;28;20251;-72
2023/07/03 11:15:05;;;;;;;10.18;2.92;;;26.00;59.20;;;;;;5025400;28;20064;-74
2023/07/03 11:17:52;;;;;;;7.65;2.97;;;25.90;59.20;;;;;;5005641;28;20038;-73
2023/07/03 11:20:30;;;;;;;8.88;2.72;;;25.90;59.20;;;;;;5005746;28;20069;-75
2023/07/03 11:23:18;;;;;;;9.88;3.13;;;26.00;58.80;;;;;;5005869;28;20042;-74
2023/07/03 11:26:14;;;;;;;7.13;2.75;;;26.00;59.20;;;;;;4988605;28;20042;-74
2023/07/03 11:28:43;;;;;;;10.13;3.22;;;25.60;59.70;;;;;;5006399;28;20137;-74
2023/07/03 11:31:10;;;;;;;8.15;3.20;;;25.70;60.20;;;;;;5005474;28;20073;-74
2023/07/03 11:33:37;;;;;;;11.05;3.35;;;25.50;60.40;;;;;;5010480;28;20030;-75
2023/07/03 11:36:04;;;;;;;10.35;3.63;;;25.50;60.60;;;;;;5019528;28;20045;-74
2023/07/03 11:38:30;;;;;;;5.57;3.03;;;26.00;59.80;;;;;;5008557;28;20018;-72
2023/07/03 11:40:56;;;;;;;5.43;2.45;;;26.20;58.40;;;;;;5007543;28;20088;-74
2023/07/03 11:43:42;;;;;;;7.50;2.70;;;26.40;57.50;;;;;;5024028;28;20038;-73
2023/07/03 11:46:27;;;;;;;8.10;3.25;;;26.60;58.80;;;;;;5024776;28;20157;-73
2023/07/03 11:48:57;;;;;;;10.27;3.55;;;26.40;59.50;;;;;;5024450;28;20104;-72
2023/07/03 11:51:36;;;;;;;9.00;3.58;;;26.50;59.80;;;;;;5022300;28;20037;-76
2023/07/03 11:54:23;;;;;;;7.18;3.38;;;26.90;60.00;;;;;;5024484;28;20047;-72
2023/07/03 11:56:52;;;;;;;11.20;3.60;;;27.30;59.00;;;;;;5024968;28;20034;-73
2023/07/03 11:59:24;;;;;;;8.38;4.00;;;27.70;58.90;;;;;;5022615;28;20074;-74
2023/07/03 12:01:52;;;;;;;10.68;3.67;;;27.70;58.90;;;;;;5023127;28;20347;-74
2023/07/03 12:04:58;;;;;;;11.02;3.97;;;27.50;59.40;;;;;;5016704;28;20034;-73
2023/07/03 12:07:23;;;;;;;9.88;3.80;;;26.70;60.90;;;;;;5001448;28;20263;-75
2023/07/03 12:10:08;;;;;;;10.45;4.60;;;26.60;61.10;;;;;;5021475;28;20068;-74
2023/07/03 12:12:37;;;;;;;11.52;4.20;;;26.30;62.10;;;;;;5004396;28;20044;-75
2023/07/03 12:15:12;;;;;;;8.63;3.83;;;26.80;61.60;;;;;;4986776;28;20014;-73
2023/07/03 12:17:39;;;;;;;12.20;4.63;;;27.80;59.80;;;;;;5004587;28;20046;-75
2023/07/03 12:20:05;;;;;;;8.55;4.03;;;27.30;60.60;;;;;;4986754;28;20049;-74
2023/07/03 12:22:36;;;;;;;8.85;3.88;;;27.60;60.30;;;;;;5011523;28;20034;-72
2023/07/03 12:25:27;;;;;;;9.95;3.85;;;28.90;58.50;;;;;;5004590;28;20236;-72
2023/07/03 12:27:55;;;;;;;8.73;3.42;;;30.50;56.80;;;;;;5004619;28;20030;-72
2023/07/03 12:30:29;;;;;;;8.65;3.40;;;30.30;55.30;;;;;;5004454;28;20037;-73
2023/07/03 12:32:56;;;;;;;8.38;3.45;;;29.30;56.20;;;;;;5004750;28;20053;-74
2023/07/03 12:35:25;;;;;;;6.47;3.63;;;28.30;57.70;;;;;;5004485;28;20081;-74
2023/07/03 12:37:55;;;;;;;9.65;3.40;;;28.40;58.80;;;;;;5004564;28;20110;-71
2023/07/03 12:40:23;;;;;;;8.40;3.38;;;30.50;56.40;;;;;;5004437;28;20026;-72
2023/07/03 12:42:50;;;;;;;;;;;31.10;54.60;;;;;;5010337;28;20207;-74
2023/07/03 12:45:21;;;;;;;8.40;3.22;;;31.30;54.60;;;;;;5023953;28;19916;-72
2023/07/03 12:48:07;;;;;;;8.80;3.20;;;32.10;54.00;;;;;;5024199;28;20084;-72
2023/07/03 12:50:47;;;;;;;6.05;3.13;;;32.90;52.50;;;;;;5009828;28;20034;-72
2023/07/03 12:53:13;;;;;;;6.45;2.50;;;34.50;51.80;;;;;;5004123;28;20312;-72
2023/07/03 12:55:43;;;;;;;6.70;3.03;;;35.50;50.80;;;;;;5003580;28;20042;-74
2023/07/03 12:58:10;;;;;;;6.90;3.05;;;36.80;48.20;;;;;;5005428;28;20026;-74
2023/07/03 13:00:36;;;;;;;7.03;2.83;;;35.00;47.40;;;;;;5006179;28;20097;-74
2023/07/03 13:03:05;;;;;;;7.00;2.72;;;33.10;49.70;;;;;;5023610;28;20049;-73
2023/07/03 13:05:33;;;;;;;6.38;2.80;;;33.50;50.00;;;;;;5023747;28;20041;-75
2023/07/03 13:08:00;;;;;;;8.15;2.60;;;34.00;50.50;;;;;;5024223;28;20072;-73
2023/07/03 13:10:26;;;;;;;6.75;2.70;;;35.10;47.50;;;;;;5023152;28;20030;-73
2023/07/03 13:13:03;;;;;;;5.35;2.17;;;34.00;48.80;;;;;;5023656;28;20050;-73
2023/07/03 13:15:40;;;;;;;5.13;2.03;;;33.60;49.10;;;;;;5023449;28;20311;-74
2023/07/03 13:18:13;;;;;;;4.60;1.73;;;34.00;48.10;;;;;;5006127;28;20064;-74
2023/07/03 13:20:40;;;;;;;6.38;2.30;;;33.50;48.10;;;;;;5023818;28;20029;-73
2023/07/03 13:23:09;;;;;;;5.43;2.20;;;31.90;49.70;;;;;;5004726;28;20023;-73
2023/07/03 13:25:38;;;;;;;6.13;2.10;;;30.40;52.00;;;;;;5003697;28;20059;-72
2023/07/03 13:28:24;;;;;;;5.10;1.98;;;30.30;52.30;;;;;;5003715;28;20102;-75
2023/07/03 13:31:11;;;;;;;4.67;1.90;;;30.20;52.30;;;;;;4986584;28;20034;-71
2023/07/03 13:33:39;;;;;;;5.07;2.10;;;30.10;52.80;;;;;;5003909;28;20070;-74
2023/07/03 13:36:20;;;;;;;6.10;2.50;;;29.80;52.80;;;;;;5003666;28;20034;-71
2023/07/03 13:39:20;;;;;;;5.82;2.22;;;29.10;53.70;;;;;;5003462;28;20018;-75
2023/07/03 13:41:48;;;;;;;6.97;2.30;;;28.40;54.90;;;;;;4993257;28;20046;-72
2023/07/03 13:44:16;;;;;;;6.45;2.30;;;27.90;55.60;;;;;;5020046;28;20022;-71
2023/07/03 13:46:44;;;;;;;5.93;1.77;;;28.00;55.30;;;;;;5023374;28;20030;-72
2023/07/03 13:49:12;;;;;;;5.30;2.00;;;27.80;55.70;;;;;;5019830;28;20093;-73
2023/07/03 13:51:39;;;;;;;5.57;2.15;;;28.00;55.30;;;;;;5003754;28;20034;-74
2023/07/03 13:54:05;;;;;;;7.65;1.92;;;27.90;55.00;;;;;;5003689;28;20044;-73
2023/07/03 13:56:33;;;;;;;4.90;1.85;;;27.80;55.40;;;;;;4986101;28;20087;-73
2023/07/03 13:59:04;;;;;;;4.85;1.80;;;27.50;54.60;;;;;;5003308;28;20022;-74
2023/07/03 14:01:33;;;;;;;4.13;1.98;;;27.40;55.90;;;;;;5003028;28;20042;-71
2023/07/03 14:04:00;;;;;;;5.20;1.70;;;27.20;56.20;;;;;;5003576;28;20034;-76
2023/07/03 14:06:26;;;;;;;4.68;1.90;;;26.90;56.30;;;;;;5001462;28;20109;-73
2023/07/03 14:08:53;;;;;;;4.53;1.63;;;26.60;57.50;;;;;;5003317;28;20026;-74
2023/07/03 14:11:19;;;;;;;3.53;1.65;;;26.20;57.10;;;;;;5002750;28;20025;-71
2023/07/03 14:13:45;;;;;;;4.13;1.48;;;25.80;57.90;;;;;;5003108;28;20031;-71
2023/07/03 14:16:12;;;;;;;5.25;1.75;;;25.70;58.40;;;;;;4985494;28;20061;-70
2023/07/03 14:18:39;;;;;;;2.90;1.73;;;25.70;58.90;;;;;;5002843;28;20037;-72
2023/07/03 14:21:05;;;;;;;3.88;1.50;;;25.70;58.50;;;;;;5003332;28;20031;-73
2023/07/03 14:23:31;;;;;;;3.60;1.52;;;25.70;58.70;;;;;;5002527;28;20030;-73
2023/07/03 14:25:57;;;;;;;3.45;1.50;;;25.70;58.90;;;;;;5003585;28;20061;-75
2023/07/03 14:28:23;;;;;;;4.22;1.30;;;25.90;58.70;;;;;;4985279;28;20026;-71
2023/07/03 14:30:51;;;;;;;2.80;0.95;;;26.10;58.10;;;;;;5002681;28;20034;-75
2023/07/03 14:33:17;;;;;;;4.18;1.10;;;26.70;57.90;;;;;;5002772;28;20101;-74
2023/07/03 14:35:43;;;;;;;3.80;1.05;;;29.30;55.20;;;;;;5003321;28;20046;-71
2023/07/03 14:38:09;;;;;;;2.60;1.05;;;32.00;50.90;;;;;;5002658;28;20022;-75
2023/07/03 14:40:36;;;;;;;2.90;1.10;;;33.90;49.30;;;;;;5003301;28;20027;-73
2023/07/03 14:43:03;;;;;;;2.88;0.95;;;33.90;47.90;;;;;;5010504;28;20076;-73
2023/07/03 14:45:28;;;;;;;2.97;1.00;;;33.40;48.90;;;;;;5022134;28;20041;-72
2023/07/03 14:47:54;;;;;;;3.63;0.98;;;32.30;49.10;;;;;;5022914;28;20038;-73
2023/07/03 14:50:20;;;;;;;2.70;1.10;;;31.30;50.40;;;;;;4992453;28;20053;-73
2023/07/03 14:52:47;;;;;;;2.10;0.80;;;30.60;51.30;;;;;;4985358;28;20030;-73
2023/07/03 14:55:14;;;;;;;2.90;1.20;;;29.80;52.30;;;;;;5002493;28;20034;-73
2023/07/03 14:57:40;;;;;;;3.83;1.00;;;29.70;52.90;;;;;;5003127;28;20030;-74
2023/07/03 15:00:08;;;;;;;2.70;0.90;;;29.50;53.10;;;;;;5002859;28;20472;-73
2023/07/03 15:02:39;;;;;;;3.72;1.08;;;29.20;53.30;;;;;;5001470;28;20351;-71
2023/07/03 15:05:05;;;;;;;3.53;1.02;;;28.80;54.70;;;;;;5002838;28;20312;-72
2023/07/03 15:07:31;;;;;;;4.18;0.80;;;28.50;54.60;;;;;;5002329;28;20030;-73
2023/07/03 15:09:57;;;;;;;2.40;0.88;;;27.80;55.00;;;;;;5002976;28;20029;-74
2023/07/03 15:12:24;;;;;;;2.40;1.20;;;27.50;56.00;;;;;;5002758;28;20085;-77
2023/07/03 15:14:49;;;;;;;3.97;1.73;;;27.20;56.50;;;;;;5003391;28;20073;-74
2023/07/03 15:17:18;;;;;;;2.85;0.80;;;27.20;56.40;;;;;;5003440;28;20258;-72
2023/07/03 15:19:44;;;;;;;2.42;0.80;;;27.30;56.40;;;;;;5005376;28;20026;-73
2023/07/03 15:22:13;;;;;;;2.10;0.90;;;29.10;54.70;;;;;;5006127;28;20041;-73
2023/07/03 15:24:40;;;;;;;2.90;1.00;;;32.40;51.20;;;;;;5005903;28;20038;-75
2023/07/03 15:27:06;;;;;;;2.00;0.55;;;35.30;48.30;;;;;;4972662;28;20146;-74
2023/07/03 15:29:31;;;;;;;2.17;0.68;;;37.20;46.30;;;;;;5005112;28;20030;-73
2023/07/03 15:31:57;;;;;;;1.65;0.50;;;37.30;45.20;;;;;;5006071;28;20217;-74
2023/07/03 15:34:23;;;;;;;3.15;0.63;;;37.20;45.30;;;;;;5006020;28;20057;-74
2023/07/03 15:36:53;;;;;;;3.10;0.43;;;36.50;45.40;;;;;;4989056;28;20030;-76
2023/07/03 15:39:23;;;;;;;2.08;0.68;;;34.90;47.30;;;;;;4972166;28;20029;-73
2023/07/03 15:41:50;;;;;;;1.73;0.60;;;33.90;47.60;;;;;;5005793;28;20026;-73
2023/07/03 15:44:17;;;;;;;1.73;0.50;;;32.90;48.40;;;;;;5005353;28;20030;-73
2023/07/03 15:46:43;;;;;;;2.17;0.57;;;32.40;49.10;;;;;;5006018;28;20112;-73
2023/07/03 15:49:09;;;;;;;1.45;0.45;;;32.00;49.70;;;;;;5006224;28;20037;-72
2023/07/03 15:51:35;;;;;;;1.88;0.55;;;32.10;49.70;;;;;;5005667;28;20034;-74
2023/07/03 15:54:01;;;;;;;3.35;0.63;;;33.80;48.40;;;;;;4988985;28;20022;-75
2023/07/03 15:56:27;;;;;;;2.30;0.70;;;35.00;47.30;;;;;;5005462;28;20087;-75
2023/07/03 15:58:56;;;;;;;1.85;0.50;;;35.50;46.50;;;;;;5005413;28;20022;-74
2023/07/03 16:01:23;;;;;;;1.60;0.47;;;36.60;46.00;;;;;;5005124;28;20030;-73
2023/07/03 16:03:58;;;;;;;2.00;0.50;;;38.30;44.50;;;;;;4988347;28;20038;-76
2023/07/03 16:06:25;;;;;;;2.20;0.45;;;37.30;44.60;;;;;;5005416;28;20316;-78
2023/07/03 16:08:54;;;;;;;1.58;0.40;;;37.70;44.40;;;;;;4988245;28;20034;-73
2023/07/03 16:11:21;;;;;;;2.40;0.50;;;36.70;44.60;;;;;;4987646;28;20034;-71
2023/07/03 16:13:48;;;;;;;2.13;0.70;;;36.90;45.00;;;;;;4988062;28;20194;-74
2023/07/03 16:16:17;;;;;;;2.10;0.50;;;38.90;44.10;;;;;;5005103;28;20030;-76
2023/07/03 16:18:54;;;;;;;1.92;0.50;;;38.40;43.10;;;;;;5005468;28;20101;-72
2023/07/03 16:21:23;;;;;;;1.35;0.40;;;37.80;44.20;;;;;;5004895;28;20097;-72
2023/07/03 16:23:54;;;;;;;1.95;0.52;;;35.50;45.70;;;;;;4987656;28;20231;-72
2023/07/03 16:26:20;;;;;;;1.15;0.38;;;33.20;47.40;;;;;;5004451;28;20038;-74
2023/07/03 16:28:46;;;;;;;1.90;0.73;;;32.40;48.50;;;;;;5004667;28;20232;-72
2023/07/03 16:31:18;;;;;;;1.67;0.57;;;31.10;49.90;;;;;;5005266;28;20089;-72
2023/07/03 16:33:48;;;;;;;3.88;0.95;;;30.10;51.30;;;;;;5005127;28;20110;-71
2023/07/03 16:36:20;;;;;;;1.63;0.70;;;29.20;52.50;;;;;;4987539;28;20032;-74
2023/07/03 16:38:52;;;;;;;2.08;0.50;;;28.70;53.50;;;;;;5005169;28;20327;-70
2023/07/03 16:41:19;;;;;;;2.10;0.50;;;28.10;54.10;;;;;;4987503;28;20042;-77
2023/07/03 16:43:47;;;;;;;1.50;0.40;;;27.60;54.80;;;;;;5005106;28;20037;-76
2023/07/03 16:46:18;;;;;;;1.67;0.60;;;27.10;55.20;;;;;;5004637;28;20034;-74
2023/07/03 16:48:45;;;;;;;1.70;0.50;;;27.00;55.40;;;;;;5004646;28;20068;-71
2023/07/03 16:51:11;;;;;;;2.50;0.70;;;27.10;55.50;;;;;;5004962;28;20026;-74
2023/07/03 16:53:41;;;;;;;1.63;0.50;;;27.20;55.60;;;;;;5004007;28;20038;-76
2023/07/03 16:56:14;;;;;;;1.33;0.55;;;27.30;55.40;;;;;;5004781;28;20018;-73
2023/07/03 16:58:43;;;;;;;3.20;0.75;;;27.10;55.60;;;;;;5006462;28;20304;-77
2023/07/03 17:01:14;;;;;;;3.50;0.50;;;27.10;55.70;;;;;;4987190;28;20030;-73
2023/07/03 17:03:40;;;;;;;1.63;0.50;;;27.10;55.70;;;;;;5003557;28;20328;-75
2023/07/03 17:06:14;;;;;;;1.55;0.60;;;27.10;55.80;;;;;;5004375;28;20312;-75
2023/07/03 17:08:39;;;;;;;1.83;0.57;;;27.30;55.80;;;;;;4986809;28;20034;-73
2023/07/03 17:11:05;;;;;;;3.25;0.50;;;27.50;55.20;;;;;;5004167;28;20184;-75
2023/07/03 17:13:31;;;;;;;1.75;0.63;;;28.70;54.10;;;;;;5004031;28;20019;-74
2023/07/03 17:15:57;;;;;;;1.42;0.60;;;29.70;52.30;;;;;;5004356;28;20212;-73
2023/07/03 17:18:24;;;;;;;3.13;0.90;;;30.00;52.20;;;;;;5003570;28;20031;-73
2023/07/03 17:20:50;;;;;;;2.10;0.70;;;29.40;52.70;;;;;;5004207;28;20030;-72
2023/07/03 17:23:16;;;;;;;2.60;0.60;;;29.40;53.30;;;;;;5004468;28;20049;-73
2023/07/03 17:25:42;;;;;;;2.85;0.60;;;29.50;53.30;;;;;;4986543;28;20038;-74
2023/07/03 17:28:09;;;;;;;2.15;0.80;;;30.10;53.10;;;;;;5004353;28;20038;-74
2023/07/03 17:30:35;;;;;;;1.60;0.55;;;31.30;51.50;;;;;;5003191;28;20057;-73
2023/07/03 17:33:01;;;;;;;1.92;0.65;;;30.90;51.80;;;;;;4986790;28;20097;-71
2023/07/03 17:35:26;;;;;;;2.83;1.10;;;29.90;53.00;;;;;;5003679;28;20045;-71
2023/07/03 17:37:52;;;;;;;3.20;1.05;;;28.80;54.20;;;;;;5004179;28;20038;-73
2023/07/03 17:40:18;;;;;;;3.15;1.05;;;28.00;55.60;;;;;;5003579;28;20042;-73
2023/07/03 17:42:44;;;;;;;3.33;0.80;;;27.00;56.90;;;;;;4986525;28;20030;-72
2023/07/03 17:45:10;;;;;;;2.00;0.80;;;26.50;57.90;;;;;;5003728;28;20092;-74
2023/07/03 17:47:39;;;;;;;2.53;0.73;;;26.30;58.40;;;;;;5003091;28;20273;-74
2023/07/03 17:50:05;;;;;;;2.58;0.80;;;26.10;58.70;;;;;;5003934;28;20061;-75
2023/07/03 17:52:31;;;;;;;2.95;0.80;;;25.90;59.20;;;;;;5019376;28;20041;-74
2023/07/03 17:54:57;;;;;;;2.22;0.80;;;25.70;59.40;;;;;;5023309;28;20316;-74
2023/07/03 17:57:23;;;;;;;4.57;0.85;;;25.80;59.50;;;;;;5022528;28;20037;-75